CheckWX is a tool to help pilots better visualize weather data.  It is not intended as a substitute for an official pre-flight weather briefing.

00:47:38 UTC

KCTZ METAR
Clinton-Sampson County Airport
Clinton, North Carolina, USA
Current

53 mins ago

KCTZ 162355Z AUTO 00000KT 10SM CLR 26/22 A2996 RMK AO2 T02620216 10318 20258
Observed
Sep-16 @ 23:55 UTC
Visibility
10 SM
Flight Rules
VFR
Cloud Levels
  • Clear skies
Temperature
26°C / 79°F
Dewpoint
22°C / 72°F
Humidity
79%
Altimeter
29.96" Hg
Pressure
1014.52 hPa
Previous

3 hours ago

KCTZ 162215Z AUTO 02005KT 10SM CLR 30/21 A2996 RMK AO2 T03020208
Observed
Sep-16 @ 22:15 UTC
Wind
  • 020° at 5 KTS
Visibility
10 SM
Flight Rules
VFR
Cloud Levels
  • Clear skies
Temperature
30°C / 86°F
Dewpoint
21°C / 70°F
Heat Index
33°C / 91°F
Humidity
59%
Altimeter
29.96" Hg
Pressure
1014.52 hPa
Previous

3 hours ago

KCTZ 162155Z AUTO 02003KT 10SM CLR 31/21 A2996 RMK AO2 T03060206
Observed
Sep-16 @ 21:55 UTC
Wind
  • 020° at 3 KTS
Visibility
10 SM
Flight Rules
VFR
Cloud Levels
  • Clear skies
Temperature
31°C / 88°F
Dewpoint
21°C / 70°F
Heat Index
34°C / 93°F
Humidity
55%
Altimeter
29.96" Hg
Pressure
1014.52 hPa